sensor_id;sensor_type;location;lat;lon;timestamp;temperature;humidity
33099;DHT22;19465;49.016;11.414;2024-02-28T00:01:52;5.70;99.90
33099;DHT22;19465;49.016;11.414;2024-02-28T00:04:18;5.60;99.90
33099;DHT22;19465;49.016;11.414;2024-02-28T00:06:44;5.60;99.90
33099;DHT22;19465;49.016;11.414;2024-02-28T00:09:12;5.50;99.90
33099;DHT22;19465;49.016;11.414;2024-02-28T00:11:46;5.50;99.90
33099;DHT22;19465;49.016;11.414;2024-02-28T00:14:12;5.50;99.90
33099;DHT22;19465;49.016;11.414;2024-02-28T00:16:42;5.50;99.90
33099;DHT22;19465;49.016;11.414;2024-02-28T00:19:08;5.50;99.90
33099;DHT22;19465;49.016;11.414;2024-02-28T00:21:34;5.60;99.90
33099;DHT22;19465;49.016;11.414;2024-02-28T00:23:59;5.60;99.90
33099;DHT22;19465;49.016;11.414;2024-02-28T00:26:25;5.60;99.90
33099;DHT22;19465;49.016;11.414;2024-02-28T00:28:51;5.60;99.90
33099;DHT22;19465;49.016;11.414;2024-02-28T00:31:16;5.60;99.90
33099;DHT22;19465;49.016;11.414;2024-02-28T00:33:42;5.70;99.90
33099;DHT22;19465;49.016;11.414;2024-02-28T00:36:07;5.70;99.90
33099;DHT22;19465;49.016;11.414;2024-02-28T00:38:33;5.70;99.90
33099;DHT22;19465;49.016;11.414;2024-02-28T00:40:58;5.80;99.90
33099;DHT22;19465;49.016;11.414;2024-02-28T00:43:24;5.80;99.90
33099;DHT22;19465;49.016;11.414;2024-02-28T00:45:49;5.90;99.90
33099;DHT22;19465;49.016;11.414;2024-02-28T00:48:15;5.90;99.90
33099;DHT22;19465;49.016;11.414;2024-02-28T00:50:40;5.90;99.90
33099;DHT22;19465;49.016;11.414;2024-02-28T00:53:06;6.00;99.90
33099;DHT22;19465;49.016;11.414;2024-02-28T00:55:32;6.00;99.90
33099;DHT22;19465;49.016;11.414;2024-02-28T00:57:57;6.00;99.90
33099;DHT22;19465;49.016;11.414;2024-02-28T01:00:23;6.10;99.90
33099;DHT22;19465;49.016;11.414;2024-02-28T01:02:48;6.10;99.90
33099;DHT22;19465;49.016;11.414;2024-02-28T01:05:14;6.10;99.90
33099;DHT22;19465;49.016;11.414;2024-02-28T01:07:39;6.10;99.90
33099;DHT22;19465;49.016;11.414;2024-02-28T01:10:07;6.10;99.90
33099;DHT22;19465;49.016;11.414;2024-02-28T01:12:32;6.10;99.90
33099;DHT22;19465;49.016;11.414;2024-02-28T01:14:58;6.10;99.90
33099;DHT22;19465;49.016;11.414;2024-02-28T01:17:23;6.10;99.90
33099;DHT22;19465;49.016;11.414;2024-02-28T01:19:49;6.10;99.90
33099;DHT22;19465;49.016;11.414;2024-02-28T01:22:15;6.10;99.90
33099;DHT22;19465;49.016;11.414;2024-02-28T01:24:40;6.10;99.90
33099;DHT22;19465;49.016;11.414;2024-02-28T01:27:06;6.10;99.90
33099;DHT22;19465;49.016;11.414;2024-02-28T01:29:31;6.10;99.90
33099;DHT22;19465;49.016;11.414;2024-02-28T01:31:57;6.20;99.90
33099;DHT22;19465;49.016;11.414;2024-02-28T01:34:23;6.10;99.90
33099;DHT22;19465;49.016;11.414;2024-02-28T01:36:49;6.10;99.90
33099;DHT22;19465;49.016;11.414;2024-02-28T01:39:14;6.10;99.90
33099;DHT22;19465;49.016;11.414;2024-02-28T01:41:40;6.10;99.90
33099;DHT22;19465;49.016;11.414;2024-02-28T01:44:06;6.10;99.90
33099;DHT22;19465;49.016;11.414;2024-02-28T01:46:31;6.10;99.90
33099;DHT22;19465;49.016;11.414;2024-02-28T01:48:58;6.20;99.90
33099;DHT22;19465;49.016;11.414;2024-02-28T01:51:25;6.20;99.90
33099;DHT22;19465;49.016;11.414;2024-02-28T01:53:52;6.20;99.90
33099;DHT22;19465;49.016;11.414;2024-02-28T01:56:19;6.20;99.90
33099;DHT22;19465;49.016;11.414;2024-02-28T01:58:46;6.10;99.90
33099;DHT22;19465;49.016;11.414;2024-02-28T02:01:14;6.30;99.90
33099;DHT22;19465;49.016;11.414;2024-02-28T02:03:40;6.30;99.90
33099;DHT22;19465;49.016;11.414;2024-02-28T02:06:05;6.20;99.90
33099;DHT22;19465;49.016;11.414;2024-02-28T02:08:32;6.20;99.90
33099;DHT22;19465;49.016;11.414;2024-02-28T02:10:59;6.30;99.90
33099;DHT22;19465;49.016;11.414;2024-02-28T02:13:24;6.20;99.90
33099;DHT22;19465;49.016;11.414;2024-02-28T02:15:50;6.30;99.90
33099;DHT22;19465;49.016;11.414;2024-02-28T02:18:15;6.20;99.90
33099;DHT22;19465;49.016;11.414;2024-02-28T02:20:44;6.20;99.90
33099;DHT22;19465;49.016;11.414;2024-02-28T02:23:10;6.30;99.90
33099;DHT22;19465;49.016;11.414;2024-02-28T02:25:47;6.30;99.90
33099;DHT22;19465;49.016;11.414;2024-02-28T02:28:13;6.30;99.90
33099;DHT22;19465;49.016;11.414;2024-02-28T02:30:39;6.40;99.90
33099;DHT22;19465;49.016;11.414;2024-02-28T02:33:05;6.30;99.90
33099;DHT22;19465;49.016;11.414;2024-02-28T02:35:31;6.30;99.90
33099;DHT22;19465;49.016;11.414;2024-02-28T02:37:56;6.30;99.90
33099;DHT22;19465;49.016;11.414;2024-02-28T02:40:22;6.30;99.90
33099;DHT22;19465;49.016;11.414;2024-02-28T02:42:47;6.30;99.90
33099;DHT22;19465;49.016;11.414;2024-02-28T02:45:13;6.40;99.90
33099;DHT22;19465;49.016;11.414;2024-02-28T02:47:39;6.40;99.90
33099;DHT22;19465;49.016;11.414;2024-02-28T02:50:05;6.50;99.90
33099;DHT22;19465;49.016;11.414;2024-02-28T02:52:31;6.40;99.90
33099;DHT22;19465;49.016;11.414;2024-02-28T02:54:56;6.40;99.90
33099;DHT22;19465;49.016;11.414;2024-02-28T02:57:22;6.40;99.90
33099;DHT22;19465;49.016;11.414;2024-02-28T02:59:47;6.40;99.90
33099;DHT22;19465;49.016;11.414;2024-02-28T03:02:13;6.30;99.90
33099;DHT22;19465;49.016;11.414;2024-02-28T03:04:38;6.30;99.90
33099;DHT22;19465;49.016;11.414;2024-02-28T03:07:04;6.40;99.90
33099;DHT22;19465;49.016;11.414;2024-02-28T03:09:29;6.40;99.90
33099;DHT22;19465;49.016;11.414;2024-02-28T03:11:55;6.30;99.90
33099;DHT22;19465;49.016;11.414;2024-02-28T03:14:20;6.30;99.90
33099;DHT22;19465;49.016;11.414;2024-02-28T03:16:47;6.30;99.90
33099;DHT22;19465;49.016;11.414;2024-02-28T03:19:14;6.20;99.90
33099;DHT22;19465;49.016;11.414;2024-02-28T03:21:40;6.20;99.90
33099;DHT22;19465;49.016;11.414;2024-02-28T03:24:06;6.20;99.90
33099;DHT22;19465;49.016;11.414;2024-02-28T03:26:32;6.20;99.90
33099;DHT22;19465;49.016;11.414;2024-02-28T03:28:58;6.10;99.90
33099;DHT22;19465;49.016;11.414;2024-02-28T03:31:24;6.10;99.90
33099;DHT22;19465;49.016;11.414;2024-02-28T03:33:50;6.10;99.90
33099;DHT22;19465;49.016;11.414;2024-02-28T03:36:16;6.10;99.90
33099;DHT22;19465;49.016;11.414;2024-02-28T03:38:41;6.10;99.90
33099;DHT22;19465;49.016;11.414;2024-02-28T03:41:07;6.10;99.90
33099;DHT22;19465;49.016;11.414;2024-02-28T03:43:33;6.20;99.90
33099;DHT22;19465;49.016;11.414;2024-02-28T03:45:58;6.10;99.90
33099;DHT22;19465;49.016;11.414;2024-02-28T03:48:24;6.10;99.90
33099;DHT22;19465;49.016;11.414;2024-02-28T03:50:49;6.10;99.90
33099;DHT22;19465;49.016;11.414;2024-02-28T03:53:16;6.10;99.90
33099;DHT22;19465;49.016;11.414;2024-02-28T03:55:41;6.10;99.90
33099;DHT22;19465;49.016;11.414;2024-02-28T03:58:09;6.00;99.90
33099;DHT22;19465;49.016;11.414;2024-02-28T04:00:35;6.00;99.90
33099;DHT22;19465;49.016;11.414;2024-02-28T04:03:01;6.10;99.90
33099;DHT22;19465;49.016;11.414;2024-02-28T04:05:28;6.10;99.90
33099;DHT22;19465;49.016;11.414;2024-02-28T04:07:53;6.10;99.90
33099;DHT22;19465;49.016;11.414;2024-02-28T04:10:19;6.00;99.90
33099;DHT22;19465;49.016;11.414;2024-02-28T04:12:44;6.10;99.90
33099;DHT22;19465;49.016;11.414;2024-02-28T04:15:11;6.00;99.90
33099;DHT22;19465;49.016;11.414;2024-02-28T04:17:38;6.10;99.90
33099;DHT22;19465;49.016;11.414;2024-02-28T04:20:03;6.00;99.90
33099;DHT22;19465;49.016;11.414;2024-02-28T04:22:30;6.00;99.90
33099;DHT22;19465;49.016;11.414;2024-02-28T04:24:57;6.00;99.90
33099;DHT22;19465;49.016;11.414;2024-02-28T04:27:23;6.00;99.90
33099;DHT22;19465;49.016;11.414;2024-02-28T04:29:48;6.00;99.90
33099;DHT22;19465;49.016;11.414;2024-02-28T04:32:14;6.00;99.90
33099;DHT22;19465;49.016;11.414;2024-02-28T04:34:39;6.10;99.90
33099;DHT22;19465;49.016;11.414;2024-02-28T04:37:05;6.10;99.90
33099;DHT22;19465;49.016;11.414;2024-02-28T04:39:30;6.00;99.90
33099;DHT22;19465;49.016;11.414;2024-02-28T04:41:56;6.00;99.90
33099;DHT22;19465;49.016;11.414;2024-02-28T04:44:21;6.00;99.90
33099;DHT22;19465;49.016;11.414;2024-02-28T04:46:47;6.10;99.90
33099;DHT22;19465;49.016;11.414;2024-02-28T04:49:12;6.00;99.90
33099;DHT22;19465;49.016;11.414;2024-02-28T04:51:38;6.00;99.90
33099;DHT22;19465;49.016;11.414;2024-02-28T04:54:04;6.10;99.90
33099;DHT22;19465;49.016;11.414;2024-02-28T04:56:29;6.10;99.90
33099;DHT22;19465;49.016;11.414;2024-02-28T04:58:55;6.00;99.90
33099;DHT22;19465;49.016;11.414;2024-02-28T05:01:20;6.00;99.90
33099;DHT22;19465;49.016;11.414;2024-02-28T05:03:46;6.00;99.90
33099;DHT22;19465;49.016;11.414;2024-02-28T05:06:11;6.00;99.90
33099;DHT22;19465;49.016;11.414;2024-02-28T05:08:40;6.00;99.90
33099;DHT22;19465;49.016;11.414;2024-02-28T05:11:05;5.90;99.90
33099;DHT22;19465;49.016;11.414;2024-02-28T05:13:31;5.90;99.90
33099;DHT22;19465;49.016;11.414;2024-02-28T05:15:56;5.90;99.90
33099;DHT22;19465;49.016;11.414;2024-02-28T05:18:22;5.90;99.90
33099;DHT22;19465;49.016;11.414;2024-02-28T05:20:48;5.90;99.90
33099;DHT22;19465;49.016;11.414;2024-02-28T05:23:13;5.80;99.90
33099;DHT22;19465;49.016;11.414;2024-02-28T05:25:39;5.70;99.90
33099;DHT22;19465;49.016;11.414;2024-02-28T05:28:04;5.80;99.90
33099;DHT22;19465;49.016;11.414;2024-02-28T05:30:30;5.80;99.90
33099;DHT22;19465;49.016;11.414;2024-02-28T05:32:56;5.80;99.90
33099;DHT22;19465;49.016;11.414;2024-02-28T05:35:21;5.80;99.90
33099;DHT22;19465;49.016;11.414;2024-02-28T05:37:47;5.90;99.90
33099;DHT22;19465;49.016;11.414;2024-02-28T05:40:12;5.80;99.90
33099;DHT22;19465;49.016;11.414;2024-02-28T05:42:39;5.70;99.90
33099;DHT22;19465;49.016;11.414;2024-02-28T05:45:06;5.80;99.90
33099;DHT22;19465;49.016;11.414;2024-02-28T05:47:31;5.80;99.90
33099;DHT22;19465;49.016;11.414;2024-02-28T05:49:57;5.90;99.90
33099;DHT22;19465;49.016;11.414;2024-02-28T05:52:24;5.80;99.90
33099;DHT22;19465;49.016;11.414;2024-02-28T05:54:51;5.90;99.90
33099;DHT22;19465;49.016;11.414;2024-02-28T05:57:16;5.80;99.90
33099;DHT22;19465;49.016;11.414;2024-02-28T05:59:42;5.80;99.90
33099;DHT22;19465;49.016;11.414;2024-02-28T06:02:08;5.90;99.90
33099;DHT22;19465;49.016;11.414;2024-02-28T06:04:34;5.90;99.90
33099;DHT22;19465;49.016;11.414;2024-02-28T06:06:59;6.00;99.90
33099;DHT22;19465;49.016;11.414;2024-02-28T06:09:26;5.90;99.90
33099;DHT22;19465;49.016;11.414;2024-02-28T06:11:54;6.00;99.90
33099;DHT22;19465;49.016;11.414;2024-02-28T06:14:20;5.90;99.90
33099;DHT22;19465;49.016;11.414;2024-02-28T06:16:49;6.00;99.90
33099;DHT22;19465;49.016;11.414;2024-02-28T06:19:14;6.00;99.90
33099;DHT22;19465;49.016;11.414;2024-02-28T06:21:40;6.00;99.90
33099;DHT22;19465;49.016;11.414;2024-02-28T06:24:05;6.00;99.90
33099;DHT22;19465;49.016;11.414;2024-02-28T06:26:31;6.00;99.90
33099;DHT22;19465;49.016;11.414;2024-02-28T06:28:59;6.00;99.90
33099;DHT22;19465;49.016;11.414;2024-02-28T06:31:27;6.10;99.90
33099;DHT22;19465;49.016;11.414;2024-02-28T06:33:57;6.00;99.90
33099;DHT22;19465;49.016;11.414;2024-02-28T06:36:22;6.10;99.90
33099;DHT22;19465;49.016;11.414;2024-02-28T06:38:48;6.10;99.90
33099;DHT22;19465;49.016;11.414;2024-02-28T06:41:13;6.20;99.90
33099;DHT22;19465;49.016;11.414;2024-02-28T06:43:39;6.20;99.90
33099;DHT22;19465;49.016;11.414;2024-02-28T06:46:04;6.10;99.90
33099;DHT22;19465;49.016;11.414;2024-02-28T06:48:30;6.10;99.90
33099;DHT22;19465;49.016;11.414;2024-02-28T06:50:56;6.10;99.90
33099;DHT22;19465;49.016;11.414;2024-02-28T06:53:22;6.20;99.90
33099;DHT22;19465;49.016;11.414;2024-02-28T06:55:47;6.20;99.90
33099;DHT22;19465;49.016;11.414;2024-02-28T06:58:14;6.20;99.90
33099;DHT22;19465;49.016;11.414;2024-02-28T07:00:40;6.30;99.90
33099;DHT22;19465;49.016;11.414;2024-02-28T07:03:06;6.30;99.90
33099;DHT22;19465;49.016;11.414;2024-02-28T07:05:32;6.30;99.90
33099;DHT22;19465;49.016;11.414;2024-02-28T07:07:59;6.30;99.90
33099;DHT22;19465;49.016;11.414;2024-02-28T07:10:25;6.30;99.90
33099;DHT22;19465;49.016;11.414;2024-02-28T07:12:50;6.40;99.90
33099;DHT22;19465;49.016;11.414;2024-02-28T07:15:16;6.40;99.90
33099;DHT22;19465;49.016;11.414;2024-02-28T07:17:44;6.40;99.90
33099;DHT22;19465;49.016;11.414;2024-02-28T07:20:10;6.40;99.90
33099;DHT22;19465;49.016;11.414;2024-02-28T07:22:37;6.50;99.90
33099;DHT22;19465;49.016;11.414;2024-02-28T07:25:03;6.50;99.90
33099;DHT22;19465;49.016;11.414;2024-02-28T07:27:30;6.50;99.90
33099;DHT22;19465;49.016;11.414;2024-02-28T07:29:56;6.50;99.90
33099;DHT22;19465;49.016;11.414;2024-02-28T07:32:21;6.60;99.90
33099;DHT22;19465;49.016;11.414;2024-02-28T07:34:47;6.60;99.90
33099;DHT22;19465;49.016;11.414;2024-02-28T07:37:12;6.60;99.90
33099;DHT22;19465;49.016;11.414;2024-02-28T07:39:38;6.60;99.90
33099;DHT22;19465;49.016;11.414;2024-02-28T07:42:04;6.70;99.90
33099;DHT22;19465;49.016;11.414;2024-02-28T07:44:29;6.80;99.90
33099;DHT22;19465;49.016;11.414;2024-02-28T07:46:58;6.70;99.90
33099;DHT22;19465;49.016;11.414;2024-02-28T07:49:24;6.70;99.90
33099;DHT22;19465;49.016;11.414;2024-02-28T07:51:50;6.70;99.90
33099;DHT22;19465;49.016;11.414;2024-02-28T07:54:16;6.70;99.90
33099;DHT22;19465;49.016;11.414;2024-02-28T07:56:41;6.70;99.90
33099;DHT22;19465;49.016;11.414;2024-02-28T07:59:07;6.80;99.90
33099;DHT22;19465;49.016;11.414;2024-02-28T08:01:46;6.80;99.90
33099;DHT22;19465;49.016;11.414;2024-02-28T08:04:29;6.70;99.90
33099;DHT22;19465;49.016;11.414;2024-02-28T08:07:02;6.70;99.90
33099;DHT22;19465;49.016;11.414;2024-02-28T08:09:40;6.70;99.90
33099;DHT22;19465;49.016;11.414;2024-02-28T08:12:15;6.60;99.90
33099;DHT22;19465;49.016;11.414;2024-02-28T08:14:54;6.60;99.90
33099;DHT22;19465;49.016;11.414;2024-02-28T08:17:41;6.60;99.90
33099;DHT22;19465;49.016;11.414;2024-02-28T08:20:58;6.60;99.90
33099;DHT22;19465;49.016;11.414;2024-02-28T08:23:37;6.90;99.90
33099;DHT22;19465;49.016;11.414;2024-02-28T08:26:27;6.90;99.90
33099;DHT22;19465;49.016;11.414;2024-02-28T08:29:19;6.90;99.90
33099;DHT22;19465;49.016;11.414;2024-02-28T08:35:16;6.90;99.90
33099;DHT22;19465;49.016;11.414;2024-02-28T08:38:06;6.90;99.90
33099;DHT22;19465;49.016;11.414;2024-02-28T08:40:53;7.00;99.90
33099;DHT22;19465;49.016;11.414;2024-02-28T08:44:13;6.90;99.90
33099;DHT22;19465;49.016;11.414;2024-02-28T08:46:51;7.00;99.90
33099;DHT22;19465;49.016;11.414;2024-02-28T08:49:30;7.00;99.90
33099;DHT22;19465;49.016;11.414;2024-02-28T08:52:05;6.90;99.90
33099;DHT22;19465;49.016;11.414;2024-02-28T08:57:58;7.00;99.90
33099;DHT22;19465;49.016;11.414;2024-02-28T09:00:46;6.80;99.90
33099;DHT22;19465;49.016;11.414;2024-02-28T09:03:17;6.80;99.90
33099;DHT22;19465;49.016;11.414;2024-02-28T09:05:49;6.80;99.90
33099;DHT22;19465;49.016;11.414;2024-02-28T09:08:21;6.90;99.90
33099;DHT22;19465;49.016;11.414;2024-02-28T09:10:59;6.90;99.90
33099;DHT22;19465;49.016;11.414;2024-02-28T09:13:40;6.80;99.90
33099;DHT22;19465;49.016;11.414;2024-02-28T09:16:38;6.80;99.90
33099;DHT22;19465;49.016;11.414;2024-02-28T09:19:12;6.80;99.90
33099;DHT22;19465;49.016;11.414;2024-02-28T09:21:43;6.80;99.90
33099;DHT22;19465;49.016;11.414;2024-02-28T09:24:27;6.90;99.90
33099;DHT22;19465;49.016;11.414;2024-02-28T09:27:09;7.00;99.90
33099;DHT22;19465;49.016;11.414;2024-02-28T09:29:51;7.00;99.90
33099;DHT22;19465;49.016;11.414;2024-02-28T09:32:46;7.00;99.90
33099;DHT22;19465;49.016;11.414;2024-02-28T09:38:20;7.30;99.90
33099;DHT22;19465;49.016;11.414;2024-02-28T09:41:10;7.30;99.90
33099;DHT22;19465;49.016;11.414;2024-02-28T09:44:06;7.30;99.90
33099;DHT22;19465;49.016;11.414;2024-02-28T09:46:48;7.40;99.90
33099;DHT22;19465;49.016;11.414;2024-02-28T09:49:29;7.40;99.90
33099;DHT22;19465;49.016;11.414;2024-02-28T09:52:02;7.30;99.90
33099;DHT22;19465;49.016;11.414;2024-02-28T09:54:38;7.40;99.90
33099;DHT22;19465;49.016;11.414;2024-02-28T09:57:29;7.40;99.90
33099;DHT22;19465;49.016;11.414;2024-02-28T10:00:04;7.40;99.90
33099;DHT22;19465;49.016;11.414;2024-02-28T10:02:52;7.40;99.90
33099;DHT22;19465;49.016;11.414;2024-02-28T10:05:33;7.30;99.90
33099;DHT22;19465;49.016;11.414;2024-02-28T10:08:14;7.40;99.90
33099;DHT22;19465;49.016;11.414;2024-02-28T10:10:55;7.40;99.90
33099;DHT22;19465;49.016;11.414;2024-02-28T10:16:20;7.40;99.90
33099;DHT22;19465;49.016;11.414;2024-02-28T10:18:57;7.30;99.90
33099;DHT22;19465;49.016;11.414;2024-02-28T10:21:48;7.30;99.90
33099;DHT22;19465;49.016;11.414;2024-02-28T10:24:25;7.10;99.90
33099;DHT22;19465;49.016;11.414;2024-02-28T10:27:06;7.00;99.90
33099;DHT22;19465;49.016;11.414;2024-02-28T10:29:38;7.00;99.90
33099;DHT22;19465;49.016;11.414;2024-02-28T10:32:32;7.00;99.90
33099;DHT22;19465;49.016;11.414;2024-02-28T10:35:38;7.00;99.90
33099;DHT22;19465;49.016;11.414;2024-02-28T10:38:30;7.00;99.90
33099;DHT22;19465;49.016;11.414;2024-02-28T10:41:11;6.90;99.90
33099;DHT22;19465;49.016;11.414;2024-02-28T10:43:48;7.00;99.90
33099;DHT22;19465;49.016;11.414;2024-02-28T10:46:26;7.10;99.90
33099;DHT22;19465;49.016;11.414;2024-02-28T10:48:55;7.20;99.90
33099;DHT22;19465;49.016;11.414;2024-02-28T10:51:48;7.30;99.90
33099;DHT22;19465;49.016;11.414;2024-02-28T10:54:31;7.20;99.90
33099;DHT22;19465;49.016;11.414;2024-02-28T10:58:06;7.20;99.90
33099;DHT22;19465;49.016;11.414;2024-02-28T11:00:46;7.30;99.90
33099;DHT22;19465;49.016;11.414;2024-02-28T11:03:22;7.30;99.90
33099;DHT22;19465;49.016;11.414;2024-02-28T11:09:36;7.20;99.90
33099;DHT22;19465;49.016;11.414;2024-02-28T11:15:04;7.40;99.90
33099;DHT22;19465;49.016;11.414;2024-02-28T11:17:44;7.50;99.90
33099;DHT22;19465;49.016;11.414;2024-02-28T11:20:59;7.60;99.90
33099;DHT22;19465;49.016;11.414;2024-02-28T11:23:44;7.60;99.90
33099;DHT22;19465;49.016;11.414;2024-02-28T11:26:21;7.70;99.90
33099;DHT22;19465;49.016;11.414;2024-02-28T11:29:06;7.60;99.90
33099;DHT22;19465;49.016;11.414;2024-02-28T11:34:30;7.80;99.90
33099;DHT22;19465;49.016;11.414;2024-02-28T11:37:12;7.80;99.90
33099;DHT22;19465;49.016;11.414;2024-02-28T11:39:55;7.80;99.90
33099;DHT22;19465;49.016;11.414;2024-02-28T11:42:38;7.80;99.90
33099;DHT22;19465;49.016;11.414;2024-02-28T11:45:31;7.90;99.90
33099;DHT22;19465;49.016;11.414;2024-02-28T11:48:17;7.80;99.90
33099;DHT22;19465;49.016;11.414;2024-02-28T11:50:53;7.90;99.90
33099;DHT22;19465;49.016;11.414;2024-02-28T11:53:28;8.00;99.90
33099;DHT22;19465;49.016;11.414;2024-02-28T11:56:11;8.10;99.90
33099;DHT22;19465;49.016;11.414;2024-02-28T11:59:08;7.90;99.90
33099;DHT22;19465;49.016;11.414;2024-02-28T12:01:56;7.70;99.90
33099;DHT22;19465;49.016;11.414;2024-02-28T12:05:05;7.70;99.90
33099;DHT22;19465;49.016;11.414;2024-02-28T12:08:02;7.70;99.90
33099;DHT22;19465;49.016;11.414;2024-02-28T12:10:38;7.70;99.90
33099;DHT22;19465;49.016;11.414;2024-02-28T12:13:04;7.70;99.90
33099;DHT22;19465;49.016;11.414;2024-02-28T12:15:30;7.70;99.90
33099;DHT22;19465;49.016;11.414;2024-02-28T12:17:56;7.70;99.90
33099;DHT22;19465;49.016;11.414;2024-02-28T12:20:23;7.50;99.90
33099;DHT22;19465;49.016;11.414;2024-02-28T12:22:49;7.50;99.90
33099;DHT22;19465;49.016;11.414;2024-02-28T12:25:15;7.50;99.90
33099;DHT22;19465;49.016;11.414;2024-02-28T12:27:40;7.60;99.90
33099;DHT22;19465;49.016;11.414;2024-02-28T12:30:06;7.60;99.90
33099;DHT22;19465;49.016;11.414;2024-02-28T12:32:32;7.60;99.90
33099;DHT22;19465;49.016;11.414;2024-02-28T12:34:58;7.50;99.90
33099;DHT22;19465;49.016;11.414;2024-02-28T12:37:23;7.40;99.90
33099;DHT22;19465;49.016;11.414;2024-02-28T12:39:49;7.50;99.90
33099;DHT22;19465;49.016;11.414;2024-02-28T12:42:16;7.50;99.90
33099;DHT22;19465;49.016;11.414;2024-02-28T12:44:42;7.50;99.90
33099;DHT22;19465;49.016;11.414;2024-02-28T12:47:11;7.50;99.90
33099;DHT22;19465;49.016;11.414;2024-02-28T12:49:37;7.50;99.90
33099;DHT22;19465;49.016;11.414;2024-02-28T12:52:03;7.60;99.90
33099;DHT22;19465;49.016;11.414;2024-02-28T12:54:29;7.50;99.90
33099;DHT22;19465;49.016;11.414;2024-02-28T12:56:55;7.50;99.90
33099;DHT22;19465;49.016;11.414;2024-02-28T12:59:21;7.50;99.90
33099;DHT22;19465;49.016;11.414;2024-02-28T13:01:46;7.40;99.90
33099;DHT22;19465;49.016;11.414;2024-02-28T13:04:15;7.50;99.90
33099;DHT22;19465;49.016;11.414;2024-02-28T13:06:41;7.40;99.90
33099;DHT22;19465;49.016;11.414;2024-02-28T13:09:06;7.50;99.90
33099;DHT22;19465;49.016;11.414;2024-02-28T13:11:37;7.50;99.90
33099;DHT22;19465;49.016;11.414;2024-02-28T13:14:03;7.50;99.90
33099;DHT22;19465;49.016;11.414;2024-02-28T13:16:29;7.50;99.90
33099;DHT22;19465;49.016;11.414;2024-02-28T13:18:55;7.50;99.90
33099;DHT22;19465;49.016;11.414;2024-02-28T13:21:21;7.50;99.90
33099;DHT22;19465;49.016;11.414;2024-02-28T13:23:46;7.60;99.90
33099;DHT22;19465;49.016;11.414;2024-02-28T13:26:12;7.50;99.90
33099;DHT22;19465;49.016;11.414;2024-02-28T13:28:44;7.60;99.90
33099;DHT22;19465;49.016;11.414;2024-02-28T13:31:10;7.60;99.90
33099;DHT22;19465;49.016;11.414;2024-02-28T13:33:35;7.50;99.90
33099;DHT22;19465;49.016;11.414;2024-02-28T13:36:03;7.50;99.90
33099;DHT22;19465;49.016;11.414;2024-02-28T13:38:29;7.40;99.90
33099;DHT22;19465;49.016;11.414;2024-02-28T13:40:55;7.40;99.90
33099;DHT22;19465;49.016;11.414;2024-02-28T13:43:21;7.40;99.90
33099;DHT22;19465;49.016;11.414;2024-02-28T13:45:47;7.40;99.90
33099;DHT22;19465;49.016;11.414;2024-02-28T13:48:21;7.40;99.90
33099;DHT22;19465;49.016;11.414;2024-02-28T13:50:49;7.30;99.90
33099;DHT22;19465;49.016;11.414;2024-02-28T13:53:15;7.30;99.90
33099;DHT22;19465;49.016;11.414;2024-02-28T13:55:42;7.20;99.90
33099;DHT22;19465;49.016;11.414;2024-02-28T13:58:14;7.30;99.90
33099;DHT22;19465;49.016;11.414;2024-02-28T14:00:43;7.20;99.90
33099;DHT22;19465;49.016;11.414;2024-02-28T14:03:10;7.20;99.90
33099;DHT22;19465;49.016;11.414;2024-02-28T14:05:36;7.20;99.90
33099;DHT22;19465;49.016;11.414;2024-02-28T14:08:02;7.20;99.90
33099;DHT22;19465;49.016;11.414;2024-02-28T14:10:33;7.20;99.90
33099;DHT22;19465;49.016;11.414;2024-02-28T14:12:59;7.30;99.90
33099;DHT22;19465;49.016;11.414;2024-02-28T14:15:24;7.30;99.90
33099;DHT22;19465;49.016;11.414;2024-02-28T14:17:51;7.20;99.90
33099;DHT22;19465;49.016;11.414;2024-02-28T14:20:19;7.30;99.90
33099;DHT22;19465;49.016;11.414;2024-02-28T14:22:45;7.30;99.90
33099;DHT22;19465;49.016;11.414;2024-02-28T14:25:12;7.30;99.90
33099;DHT22;19465;49.016;11.414;2024-02-28T14:27:38;7.20;99.90
33099;DHT22;19465;49.016;11.414;2024-02-28T14:30:05;7.30;99.90
33099;DHT22;19465;49.016;11.414;2024-02-28T14:32:33;7.20;99.90
33099;DHT22;19465;49.016;11.414;2024-02-28T14:34:59;7.20;99.90
33099;DHT22;19465;49.016;11.414;2024-02-28T14:37:24;7.20;99.90
33099;DHT22;19465;49.016;11.414;2024-02-28T14:39:50;7.20;99.90
33099;DHT22;19465;49.016;11.414;2024-02-28T14:42:15;7.20;99.90
33099;DHT22;19465;49.016;11.414;2024-02-28T14:44:41;7.20;99.90
33099;DHT22;19465;49.016;11.414;2024-02-28T14:47:06;7.20;99.90
33099;DHT22;19465;49.016;11.414;2024-02-28T14:49:32;7.20;99.90
33099;DHT22;19465;49.016;11.414;2024-02-28T14:51:57;7.20;99.90
33099;DHT22;19465;49.016;11.414;2024-02-28T14:54:25;7.30;99.90
33099;DHT22;19465;49.016;11.414;2024-02-28T14:56:52;7.20;99.90
33099;DHT22;19465;49.016;11.414;2024-02-28T14:59:17;7.20;99.90
33099;DHT22;19465;49.016;11.414;2024-02-28T15:01:43;7.10;99.90
33099;DHT22;19465;49.016;11.414;2024-02-28T15:04:08;7.20;99.90
33099;DHT22;19465;49.016;11.414;2024-02-28T15:06:34;7.20;99.90
33099;DHT22;19465;49.016;11.414;2024-02-28T15:09:00;7.20;99.90
33099;DHT22;19465;49.016;11.414;2024-02-28T15:11:28;7.20;99.90
33099;DHT22;19465;49.016;11.414;2024-02-28T15:13:54;7.10;99.90
33099;DHT22;19465;49.016;11.414;2024-02-28T15:16:19;7.20;99.90
33099;DHT22;19465;49.016;11.414;2024-02-28T15:18:45;7.20;99.90
33099;DHT22;19465;49.016;11.414;2024-02-28T15:21:11;7.10;99.90
33099;DHT22;19465;49.016;11.414;2024-02-28T15:23:36;7.20;99.90
33099;DHT22;19465;49.016;11.414;2024-02-28T15:26:02;7.20;99.90
33099;DHT22;19465;49.016;11.414;2024-02-28T15:28:28;7.10;99.90
33099;DHT22;19465;49.016;11.414;2024-02-28T15:30:55;7.00;99.90
33099;DHT22;19465;49.016;11.414;2024-02-28T15:33:21;7.00;99.90
33099;DHT22;19465;49.016;11.414;2024-02-28T15:35:47;7.00;99.90
33099;DHT22;19465;49.016;11.414;2024-02-28T15:38:13;7.00;99.90
33099;DHT22;19465;49.016;11.414;2024-02-28T15:40:39;7.00;99.90
33099;DHT22;19465;49.016;11.414;2024-02-28T15:43:05;7.00;99.90
33099;DHT22;19465;49.016;11.414;2024-02-28T15:45:30;7.00;99.90
33099;DHT22;19465;49.016;11.414;2024-02-28T15:47:56;7.00;99.90
33099;DHT22;19465;49.016;11.414;2024-02-28T15:50:23;7.00;99.90
33099;DHT22;19465;49.016;11.414;2024-02-28T15:52:49;7.00;99.90
33099;DHT22;19465;49.016;11.414;2024-02-28T15:55:14;6.90;99.90
33099;DHT22;19465;49.016;11.414;2024-02-28T15:57:42;6.90;99.90
33099;DHT22;19465;49.016;11.414;2024-02-28T16:00:08;6.90;99.90
33099;DHT22;19465;49.016;11.414;2024-02-28T16:02:35;6.90;99.90
33099;DHT22;19465;49.016;11.414;2024-02-28T16:05:00;6.90;99.90
33099;DHT22;19465;49.016;11.414;2024-02-28T16:07:27;6.80;99.90
33099;DHT22;19465;49.016;11.414;2024-02-28T16:09:52;6.80;99.90